sensor_id;sensor_type;location;lat;lon;timestamp;P1;durP1;ratioP1;P2;durP2;ratioP2
19810;SDS011;10065;49.632;8.346;2022-12-07T00:01:05;12.53;;;6.37;;
19810;SDS011;10065;49.632;8.346;2022-12-07T00:03:35;12.00;;;6.20;;
19810;SDS011;10065;49.632;8.346;2022-12-07T00:06:04;10.30;;;5.67;;
19810;SDS011;10065;49.632;8.346;2022-12-07T00:08:34;11.40;;;6.30;;
19810;SDS011;10065;49.632;8.346;2022-12-07T00:11:03;14.60;;;6.77;;
19810;SDS011;10065;49.632;8.346;2022-12-07T00:13:31;12.17;;;6.50;;
19810;SDS011;10065;49.632;8.346;2022-12-07T00:16:01;11.80;;;5.77;;
19810;SDS011;10065;49.632;8.346;2022-12-07T00:18:30;11.50;;;6.03;;
19810;SDS011;10065;49.632;8.346;2022-12-07T00:20:59;13.10;;;6.00;;
19810;SDS011;10065;49.632;8.346;2022-12-07T00:23:28;14.30;;;7.40;;
19810;SDS011;10065;49.632;8.346;2022-12-07T00:26:02;10.30;;;6.27;;
19810;SDS011;10065;49.632;8.346;2022-12-07T00:28:31;13.37;;;6.93;;
19810;SDS011;10065;49.632;8.346;2022-12-07T00:31:00;15.97;;;7.43;;
19810;SDS011;10065;49.632;8.346;2022-12-07T00:33:29;13.00;;;6.23;;
19810;SDS011;10065;49.632;8.346;2022-12-07T00:35:57;12.33;;;6.40;;
19810;SDS011;10065;49.632;8.346;2022-12-07T00:38:27;12.17;;;6.60;;
19810;SDS011;10065;49.632;8.346;2022-12-07T00:40:58;12.77;;;6.30;;
19810;SDS011;10065;49.632;8.346;2022-12-07T00:43:27;12.93;;;6.33;;
19810;SDS011;10065;49.632;8.346;2022-12-07T00:45:55;16.60;;;6.60;;
19810;SDS011;10065;49.632;8.346;2022-12-07T00:48:23;11.13;;;5.83;;
19810;SDS011;10065;49.632;8.346;2022-12-07T00:50:53;12.53;;;7.17;;
19810;SDS011;10065;49.632;8.346;2022-12-07T00:53:22;12.60;;;6.63;;
19810;SDS011;10065;49.632;8.346;2022-12-07T00:55:50;12.40;;;6.37;;
19810;SDS011;10065;49.632;8.346;2022-12-07T00:58:20;15.63;;;7.27;;
19810;SDS011;10065;49.632;8.346;2022-12-07T01:00:47;13.77;;;6.57;;
19810;SDS011;10065;49.632;8.346;2022-12-07T01:03:16;11.23;;;6.00;;
19810;SDS011;10065;49.632;8.346;2022-12-07T01:05:50;11.07;;;6.27;;
19810;SDS011;10065;49.632;8.346;2022-12-07T01:08:18;12.37;;;5.90;;
19810;SDS011;10065;49.632;8.346;2022-12-07T01:10:47;12.70;;;6.57;;
19810;SDS011;10065;49.632;8.346;2022-12-07T01:13:15;10.30;;;6.33;;
19810;SDS011;10065;49.632;8.346;2022-12-07T01:15:44;13.47;;;6.40;;
19810;SDS011;10065;49.632;8.346;2022-12-07T01:18:12;11.60;;;5.97;;
19810;SDS011;10065;49.632;8.346;2022-12-07T01:20:40;16.80;;;6.63;;
19810;SDS011;10065;49.632;8.346;2022-12-07T01:23:08;11.40;;;6.67;;
19810;SDS011;10065;49.632;8.346;2022-12-07T01:25:36;11.17;;;6.40;;
19810;SDS011;10065;49.632;8.346;2022-12-07T01:28:03;12.53;;;6.37;;
19810;SDS011;10065;49.632;8.346;2022-12-07T01:30:31;13.27;;;6.67;;
19810;SDS011;10065;49.632;8.346;2022-12-07T01:33:00;13.20;;;6.70;;
19810;SDS011;10065;49.632;8.346;2022-12-07T01:35:28;11.67;;;6.63;;
19810;SDS011;10065;49.632;8.346;2022-12-07T01:37:56;15.23;;;6.60;;
19810;SDS011;10065;49.632;8.346;2022-12-07T01:40:23;10.57;;;5.90;;
19810;SDS011;10065;49.632;8.346;2022-12-07T01:42:51;11.30;;;6.07;;
19810;SDS011;10065;49.632;8.346;2022-12-07T01:45:36;11.53;;;6.23;;
19810;SDS011;10065;49.632;8.346;2022-12-07T01:48:08;12.33;;;7.03;;
19810;SDS011;10065;49.632;8.346;2022-12-07T01:50:38;11.77;;;6.03;;
19810;SDS011;10065;49.632;8.346;2022-12-07T01:53:09;11.87;;;5.93;;
19810;SDS011;10065;49.632;8.346;2022-12-07T01:55:38;11.07;;;5.90;;
19810;SDS011;10065;49.632;8.346;2022-12-07T01:58:09;10.93;;;5.73;;
19810;SDS011;10065;49.632;8.346;2022-12-07T02:00:38;13.37;;;6.53;;
19810;SDS011;10065;49.632;8.346;2022-12-07T02:03:10;12.40;;;6.10;;
19810;SDS011;10065;49.632;8.346;2022-12-07T02:05:43;12.60;;;6.30;;
19810;SDS011;10065;49.632;8.346;2022-12-07T02:08:12;9.97;;;5.60;;
19810;SDS011;10065;49.632;8.346;2022-12-07T02:10:40;10.10;;;5.87;;
19810;SDS011;10065;49.632;8.346;2022-12-07T02:13:09;10.93;;;6.20;;
19810;SDS011;10065;49.632;8.346;2022-12-07T02:15:45;10.80;;;5.83;;
19810;SDS011;10065;49.632;8.346;2022-12-07T02:18:28;10.73;;;5.97;;
19810;SDS011;10065;49.632;8.346;2022-12-07T02:21:07;10.50;;;5.67;;
19810;SDS011;10065;49.632;8.346;2022-12-07T02:23:47;11.53;;;6.00;;
19810;SDS011;10065;49.632;8.346;2022-12-07T02:29:37;11.73;;;6.23;;
19810;SDS011;10065;49.632;8.346;2022-12-07T02:32:11;12.53;;;6.93;;
19810;SDS011;10065;49.632;8.346;2022-12-07T02:34:46;11.87;;;6.40;;
19810;SDS011;10065;49.632;8.346;2022-12-07T02:37:19;13.03;;;6.57;;
19810;SDS011;10065;49.632;8.346;2022-12-07T02:39:57;15.63;;;7.30;;
19810;SDS011;10065;49.632;8.346;2022-12-07T02:42:31;11.43;;;6.03;;
19810;SDS011;10065;49.632;8.346;2022-12-07T02:45:04;12.93;;;6.90;;
19810;SDS011;10065;49.632;8.346;2022-12-07T02:47:34;10.57;;;5.80;;
19810;SDS011;10065;49.632;8.346;2022-12-07T02:50:04;10.40;;;6.20;;
19810;SDS011;10065;49.632;8.346;2022-12-07T02:52:33;10.17;;;5.50;;
19810;SDS011;10065;49.632;8.346;2022-12-07T02:55:00;13.50;;;6.50;;
19810;SDS011;10065;49.632;8.346;2022-12-07T02:57:34;11.70;;;5.70;;
19810;SDS011;10065;49.632;8.346;2022-12-07T03:00:11;11.60;;;6.53;;
19810;SDS011;10065;49.632;8.346;2022-12-07T03:02:46;11.30;;;5.93;;
19810;SDS011;10065;49.632;8.346;2022-12-07T03:05:28;11.10;;;5.87;;
19810;SDS011;10065;49.632;8.346;2022-12-07T03:08:11;11.63;;;6.07;;
19810;SDS011;10065;49.632;8.346;2022-12-07T03:10:48;11.77;;;6.20;;
19810;SDS011;10065;49.632;8.346;2022-12-07T03:13:23;9.47;;;5.67;;
19810;SDS011;10065;49.632;8.346;2022-12-07T03:15:58;10.50;;;5.60;;
19810;SDS011;10065;49.632;8.346;2022-12-07T03:18:31;12.20;;;6.20;;
19810;SDS011;10065;49.632;8.346;2022-12-07T03:21:05;12.20;;;6.13;;
19810;SDS011;10065;49.632;8.346;2022-12-07T03:23:37;12.60;;;6.13;;
19810;SDS011;10065;49.632;8.346;2022-12-07T03:26:08;12.30;;;6.17;;
19810;SDS011;10065;49.632;8.346;2022-12-07T03:28:41;11.20;;;5.67;;
19810;SDS011;10065;49.632;8.346;2022-12-07T03:31:17;10.20;;;5.03;;
19810;SDS011;10065;49.632;8.346;2022-12-07T03:33:50;9.73;;;5.30;;
19810;SDS011;10065;49.632;8.346;2022-12-07T03:36:26;9.47;;;5.17;;
19810;SDS011;10065;49.632;8.346;2022-12-07T03:39:00;11.27;;;6.17;;
19810;SDS011;10065;49.632;8.346;2022-12-07T03:41:35;10.40;;;5.50;;
19810;SDS011;10065;49.632;8.346;2022-12-07T03:44:10;11.70;;;6.00;;
19810;SDS011;10065;49.632;8.346;2022-12-07T03:46:41;10.83;;;5.40;;
19810;SDS011;10065;49.632;8.346;2022-12-07T03:49:12;11.77;;;5.73;;
19810;SDS011;10065;49.632;8.346;2022-12-07T03:51:53;10.00;;;5.37;;
19810;SDS011;10065;49.632;8.346;2022-12-07T03:54:24;11.00;;;5.50;;
19810;SDS011;10065;49.632;8.346;2022-12-07T03:56:57;12.13;;;5.47;;
19810;SDS011;10065;49.632;8.346;2022-12-07T03:59:26;11.40;;;6.57;;
19810;SDS011;10065;49.632;8.346;2022-12-07T04:01:57;11.83;;;5.90;;
19810;SDS011;10065;49.632;8.346;2022-12-07T04:04:29;9.87;;;5.73;;
19810;SDS011;10065;49.632;8.346;2022-12-07T04:06:57;11.20;;;5.37;;
19810;SDS011;10065;49.632;8.346;2022-12-07T04:09:26;9.70;;;5.03;;
19810;SDS011;10065;49.632;8.346;2022-12-07T04:11:54;10.13;;;5.30;;
19810;SDS011;10065;49.632;8.346;2022-12-07T04:14:24;9.13;;;4.93;;
19810;SDS011;10065;49.632;8.346;2022-12-07T04:16:52;8.47;;;4.83;;
19810;SDS011;10065;49.632;8.346;2022-12-07T04:19:25;10.30;;;5.67;;
19810;SDS011;10065;49.632;8.346;2022-12-07T04:21:54;9.43;;;4.87;;
19810;SDS011;10065;49.632;8.346;2022-12-07T04:24:24;9.70;;;5.10;;
19810;SDS011;10065;49.632;8.346;2022-12-07T04:26:52;10.57;;;5.43;;
19810;SDS011;10065;49.632;8.346;2022-12-07T04:29:22;10.63;;;5.53;;
19810;SDS011;10065;49.632;8.346;2022-12-07T04:31:53;11.40;;;5.20;;
19810;SDS011;10065;49.632;8.346;2022-12-07T04:34:21;10.50;;;5.60;;
19810;SDS011;10065;49.632;8.346;2022-12-07T04:36:50;9.37;;;5.67;;
19810;SDS011;10065;49.632;8.346;2022-12-07T04:39:19;10.67;;;5.80;;
19810;SDS011;10065;49.632;8.346;2022-12-07T04:41:49;10.40;;;5.97;;
19810;SDS011;10065;49.632;8.346;2022-12-07T04:44:17;10.23;;;5.87;;
19810;SDS011;10065;49.632;8.346;2022-12-07T04:46:45;10.83;;;5.70;;
19810;SDS011;10065;49.632;8.346;2022-12-07T04:49:14;11.43;;;6.33;;
19810;SDS011;10065;49.632;8.346;2022-12-07T04:51:43;13.50;;;7.00;;
19810;SDS011;10065;49.632;8.346;2022-12-07T04:54:13;13.13;;;6.97;;
19810;SDS011;10065;49.632;8.346;2022-12-07T04:56:42;13.87;;;6.90;;
19810;SDS011;10065;49.632;8.346;2022-12-07T04:59:10;11.40;;;6.60;;
19810;SDS011;10065;49.632;8.346;2022-12-07T05:01:38;10.97;;;6.30;;
19810;SDS011;10065;49.632;8.346;2022-12-07T05:04:08;11.53;;;5.97;;
19810;SDS011;10065;49.632;8.346;2022-12-07T05:06:36;13.63;;;6.67;;
19810;SDS011;10065;49.632;8.346;2022-12-07T05:09:04;12.03;;;6.10;;
19810;SDS011;10065;49.632;8.346;2022-12-07T05:11:33;10.00;;;6.07;;
19810;SDS011;10065;49.632;8.346;2022-12-07T05:14:09;16.07;;;6.47;;
19810;SDS011;10065;49.632;8.346;2022-12-07T05:16:39;10.63;;;6.33;;
19810;SDS011;10065;49.632;8.346;2022-12-07T05:19:07;12.70;;;6.53;;
19810;SDS011;10065;49.632;8.346;2022-12-07T05:21:36;11.57;;;6.03;;
19810;SDS011;10065;49.632;8.346;2022-12-07T05:24:04;12.33;;;6.60;;
19810;SDS011;10065;49.632;8.346;2022-12-07T05:26:35;10.77;;;6.57;;
19810;SDS011;10065;49.632;8.346;2022-12-07T05:29:02;12.43;;;6.33;;
19810;SDS011;10065;49.632;8.346;2022-12-07T05:31:30;13.33;;;7.20;;
19810;SDS011;10065;49.632;8.346;2022-12-07T05:33:59;11.77;;;6.43;;
19810;SDS011;10065;49.632;8.346;2022-12-07T05:36:27;13.50;;;6.30;;
19810;SDS011;10065;49.632;8.346;2022-12-07T05:38:57;12.07;;;6.60;;
19810;SDS011;10065;49.632;8.346;2022-12-07T05:41:25;12.57;;;6.97;;
19810;SDS011;10065;49.632;8.346;2022-12-07T05:44:13;11.33;;;6.00;;
19810;SDS011;10065;49.632;8.346;2022-12-07T05:46:41;12.93;;;6.27;;
19810;SDS011;10065;49.632;8.346;2022-12-07T05:49:09;13.60;;;7.20;;
19810;SDS011;10065;49.632;8.346;2022-12-07T05:51:36;12.87;;;6.43;;
19810;SDS011;10065;49.632;8.346;2022-12-07T05:54:04;12.40;;;7.23;;
19810;SDS011;10065;49.632;8.346;2022-12-07T05:56:32;15.30;;;7.50;;
19810;SDS011;10065;49.632;8.346;2022-12-07T05:59:00;11.47;;;6.53;;
19810;SDS011;10065;49.632;8.346;2022-12-07T06:01:46;11.27;;;6.53;;
19810;SDS011;10065;49.632;8.346;2022-12-07T06:04:14;12.37;;;6.33;;
19810;SDS011;10065;49.632;8.346;2022-12-07T06:06:42;15.70;;;7.47;;
19810;SDS011;10065;49.632;8.346;2022-12-07T06:09:10;11.23;;;6.43;;
19810;SDS011;10065;49.632;8.346;2022-12-07T06:11:39;11.20;;;6.80;;
19810;SDS011;10065;49.632;8.346;2022-12-07T06:14:21;11.37;;;6.30;;
19810;SDS011;10065;49.632;8.346;2022-12-07T06:16:50;13.03;;;6.13;;
19810;SDS011;10065;49.632;8.346;2022-12-07T06:19:18;12.07;;;6.33;;
19810;SDS011;10065;49.632;8.346;2022-12-07T06:21:46;12.30;;;7.10;;
19810;SDS011;10065;49.632;8.346;2022-12-07T06:24:14;12.90;;;6.23;;
19810;SDS011;10065;49.632;8.346;2022-12-07T06:26:43;11.53;;;6.27;;
19810;SDS011;10065;49.632;8.346;2022-12-07T06:29:11;11.97;;;6.83;;
19810;SDS011;10065;49.632;8.346;2022-12-07T06:31:40;10.10;;;6.00;;
19810;SDS011;10065;49.632;8.346;2022-12-07T06:34:10;11.07;;;6.50;;
19810;SDS011;10065;49.632;8.346;2022-12-07T06:36:40;10.03;;;6.40;;
19810;SDS011;10065;49.632;8.346;2022-12-07T06:39:08;12.47;;;6.43;;
19810;SDS011;10065;49.632;8.346;2022-12-07T06:41:36;13.37;;;6.43;;
19810;SDS011;10065;49.632;8.346;2022-12-07T06:44:04;11.17;;;7.13;;
19810;SDS011;10065;49.632;8.346;2022-12-07T06:46:33;11.13;;;7.03;;
19810;SDS011;10065;49.632;8.346;2022-12-07T06:49:01;13.27;;;7.27;;
19810;SDS011;10065;49.632;8.346;2022-12-07T06:51:31;12.60;;;6.80;;
19810;SDS011;10065;49.632;8.346;2022-12-07T06:53:58;11.07;;;5.87;;
19810;SDS011;10065;49.632;8.346;2022-12-07T06:56:26;16.83;;;7.20;;
19810;SDS011;10065;49.632;8.346;2022-12-07T06:58:54;10.93;;;6.03;;
19810;SDS011;10065;49.632;8.346;2022-12-07T07:01:22;10.63;;;6.33;;
19810;SDS011;10065;49.632;8.346;2022-12-07T07:03:50;13.50;;;6.73;;
19810;SDS011;10065;49.632;8.346;2022-12-07T07:06:18;12.93;;;7.20;;
19810;SDS011;10065;49.632;8.346;2022-12-07T07:08:47;12.53;;;7.17;;
19810;SDS011;10065;49.632;8.346;2022-12-07T07:11:15;13.07;;;6.87;;
19810;SDS011;10065;49.632;8.346;2022-12-07T07:13:43;13.37;;;7.13;;
19810;SDS011;10065;49.632;8.346;2022-12-07T07:16:11;17.70;;;7.73;;
19810;SDS011;10065;49.632;8.346;2022-12-07T07:18:39;15.07;;;7.00;;
19810;SDS011;10065;49.632;8.346;2022-12-07T07:21:07;13.30;;;6.77;;
19810;SDS011;10065;49.632;8.346;2022-12-07T07:23:36;17.17;;;7.97;;
19810;SDS011;10065;49.632;8.346;2022-12-07T07:26:05;12.63;;;7.20;;
19810;SDS011;10065;49.632;8.346;2022-12-07T07:28:33;14.13;;;7.27;;
19810;SDS011;10065;49.632;8.346;2022-12-07T07:31:00;14.27;;;7.40;;
19810;SDS011;10065;49.632;8.346;2022-12-07T07:33:28;17.00;;;7.30;;
19810;SDS011;10065;49.632;8.346;2022-12-07T07:35:56;12.13;;;7.40;;
19810;SDS011;10065;49.632;8.346;2022-12-07T07:38:24;13.00;;;7.33;;
19810;SDS011;10065;49.632;8.346;2022-12-07T07:40:52;16.57;;;7.67;;
19810;SDS011;10065;49.632;8.346;2022-12-07T07:43:21;14.50;;;8.57;;
19810;SDS011;10065;49.632;8.346;2022-12-07T07:45:48;14.83;;;8.30;;
19810;SDS011;10065;49.632;8.346;2022-12-07T07:48:17;14.70;;;7.60;;
19810;SDS011;10065;49.632;8.346;2022-12-07T07:50:44;13.70;;;8.03;;
19810;SDS011;10065;49.632;8.346;2022-12-07T07:53:12;13.93;;;8.20;;
19810;SDS011;10065;49.632;8.346;2022-12-07T07:55:40;18.97;;;8.57;;
19810;SDS011;10065;49.632;8.346;2022-12-07T07:58:07;13.87;;;8.00;;
19810;SDS011;10065;49.632;8.346;2022-12-07T08:00:37;14.17;;;8.03;;
19810;SDS011;10065;49.632;8.346;2022-12-07T08:03:04;17.07;;;8.27;;
19810;SDS011;10065;49.632;8.346;2022-12-07T08:05:32;14.53;;;8.17;;
19810;SDS011;10065;49.632;8.346;2022-12-07T08:08:00;13.63;;;7.40;;
19810;SDS011;10065;49.632;8.346;2022-12-07T08:10:28;15.93;;;7.60;;
19810;SDS011;10065;49.632;8.346;2022-12-07T08:12:55;15.73;;;8.07;;
19810;SDS011;10065;49.632;8.346;2022-12-07T08:15:41;15.90;;;8.57;;
19810;SDS011;10065;49.632;8.346;2022-12-07T08:18:11;13.97;;;7.87;;
19810;SDS011;10065;49.632;8.346;2022-12-07T08:20:40;12.87;;;7.20;;
19810;SDS011;10065;49.632;8.346;2022-12-07T08:23:09;17.77;;;8.73;;
19810;SDS011;10065;49.632;8.346;2022-12-07T08:25:38;16.53;;;9.03;;
19810;SDS011;10065;49.632;8.346;2022-12-07T08:28:06;12.80;;;8.00;;
19810;SDS011;10065;49.632;8.346;2022-12-07T08:30:34;15.67;;;8.40;;
19810;SDS011;10065;49.632;8.346;2022-12-07T08:33:03;15.67;;;7.47;;
19810;SDS011;10065;49.632;8.346;2022-12-07T08:35:32;17.57;;;8.77;;
19810;SDS011;10065;49.632;8.346;2022-12-07T08:38:00;16.97;;;8.63;;
19810;SDS011;10065;49.632;8.346;2022-12-07T08:40:30;18.37;;;8.57;;
19810;SDS011;10065;49.632;8.346;2022-12-07T08:42:57;18.37;;;9.10;;
19810;SDS011;10065;49.632;8.346;2022-12-07T08:45:25;18.27;;;9.40;;
19810;SDS011;10065;49.632;8.346;2022-12-07T08:47:54;17.97;;;8.63;;
19810;SDS011;10065;49.632;8.346;2022-12-07T08:50:37;16.30;;;9.13;;
19810;SDS011;10065;49.632;8.346;2022-12-07T08:53:14;18.33;;;9.77;;
19810;SDS011;10065;49.632;8.346;2022-12-07T08:55:43;18.07;;;9.20;;
19810;SDS011;10065;49.632;8.346;2022-12-07T08:58:11;14.87;;;8.97;;
19810;SDS011;10065;49.632;8.346;2022-12-07T09:00:39;16.67;;;8.80;;
19810;SDS011;10065;49.632;8.346;2022-12-07T09:03:07;18.30;;;8.93;;
19810;SDS011;10065;49.632;8.346;2022-12-07T09:05:36;15.57;;;8.07;;
19810;SDS011;10065;49.632;8.346;2022-12-07T09:08:04;16.53;;;9.50;;
19810;SDS011;10065;49.632;8.346;2022-12-07T09:10:33;14.97;;;8.80;;
19810;SDS011;10065;49.632;8.346;2022-12-07T09:13:01;16.10;;;9.20;;
19810;SDS011;10065;49.632;8.346;2022-12-07T09:15:28;14.47;;;8.40;;
19810;SDS011;10065;49.632;8.346;2022-12-07T09:17:57;15.23;;;8.63;;
19810;SDS011;10065;49.632;8.346;2022-12-07T09:20:25;19.90;;;9.20;;
19810;SDS011;10065;49.632;8.346;2022-12-07T09:22:57;16.27;;;9.10;;
19810;SDS011;10065;49.632;8.346;2022-12-07T09:25:24;15.67;;;8.37;;
19810;SDS011;10065;49.632;8.346;2022-12-07T09:27:55;15.43;;;8.43;;
19810;SDS011;10065;49.632;8.346;2022-12-07T09:30:23;15.00;;;8.60;;
19810;SDS011;10065;49.632;8.346;2022-12-07T09:32:52;15.10;;;8.93;;
19810;SDS011;10065;49.632;8.346;2022-12-07T09:35:21;13.93;;;8.70;;
19810;SDS011;10065;49.632;8.346;2022-12-07T09:37:49;14.13;;;8.43;;
19810;SDS011;10065;49.632;8.346;2022-12-07T09:40:19;14.07;;;8.03;;
19810;SDS011;10065;49.632;8.346;2022-12-07T09:42:49;14.87;;;8.40;;
19810;SDS011;10065;49.632;8.346;2022-12-07T09:45:21;13.33;;;8.07;;
19810;SDS011;10065;49.632;8.346;2022-12-07T09:47:51;13.83;;;8.70;;
19810;SDS011;10065;49.632;8.346;2022-12-07T09:50:20;14.03;;;8.20;;
19810;SDS011;10065;49.632;8.346;2022-12-07T09:52:50;15.17;;;7.93;;
19810;SDS011;10065;49.632;8.346;2022-12-07T09:55:22;13.13;;;7.20;;
19810;SDS011;10065;49.632;8.346;2022-12-07T09:57:52;13.63;;;8.00;;
19810;SDS011;10065;49.632;8.346;2022-12-07T10:00:22;11.00;;;7.07;;
19810;SDS011;10065;49.632;8.346;2022-12-07T10:02:53;12.97;;;7.80;;
19810;SDS011;10065;49.632;8.346;2022-12-07T10:05:25;12.00;;;7.43;;
19810;SDS011;10065;49.632;8.346;2022-12-07T10:07:57;11.23;;;6.57;;
19810;SDS011;10065;49.632;8.346;2022-12-07T10:10:28;12.17;;;5.97;;
19810;SDS011;10065;49.632;8.346;2022-12-07T10:13:04;14.03;;;6.80;;
19810;SDS011;10065;49.632;8.346;2022-12-07T10:15:41;11.73;;;5.90;;
19810;SDS011;10065;49.632;8.346;2022-12-07T10:18:18;10.53;;;6.30;;
19810;SDS011;10065;49.632;8.346;2022-12-07T10:21:01;10.87;;;6.43;;
19810;SDS011;10065;49.632;8.346;2022-12-07T10:23:33;10.17;;;5.93;;
19810;SDS011;10065;49.632;8.346;2022-12-07T10:28:55;11.37;;;5.87;;
19810;SDS011;10065;49.632;8.346;2022-12-07T10:31:25;10.37;;;6.40;;
19810;SDS011;10065;49.632;8.346;2022-12-07T10:33:54;10.50;;;6.17;;
19810;SDS011;10065;49.632;8.346;2022-12-07T10:36:24;9.13;;;5.80;;
19810;SDS011;10065;49.632;8.346;2022-12-07T10:38:58;7.83;;;4.63;;
19810;SDS011;10065;49.632;8.346;2022-12-07T10:41:27;7.10;;;3.07;;
19810;SDS011;10065;49.632;8.346;2022-12-07T10:43:57;4.40;;;2.53;;
19810;SDS011;10065;49.632;8.346;2022-12-07T10:46:32;8.47;;;2.50;;
19810;SDS011;10065;49.632;8.346;2022-12-07T10:49:25;5.50;;;1.90;;
19810;SDS011;10065;49.632;8.346;2022-12-07T10:52:09;5.10;;;1.60;;
19810;SDS011;10065;49.632;8.346;2022-12-07T10:54:45;3.90;;;1.90;;
19810;SDS011;10065;49.632;8.346;2022-12-07T10:57:32;6.73;;;2.03;;
19810;SDS011;10065;49.632;8.346;2022-12-07T11:00:15;4.97;;;2.23;;
19810;SDS011;10065;49.632;8.346;2022-12-07T11:02:50;8.07;;;2.27;;
19810;SDS011;10065;49.632;8.346;2022-12-07T11:05:35;4.20;;;2.20;;
19810;SDS011;10065;49.632;8.346;2022-12-07T11:08:14;5.60;;;2.30;;
19810;SDS011;10065;49.632;8.346;2022-12-07T11:10:50;4.83;;;2.27;;
19810;SDS011;10065;49.632;8.346;2022-12-07T11:13:24;5.40;;;2.40;;
19810;SDS011;10065;49.632;8.346;2022-12-07T11:16:01;4.13;;;2.27;;
19810;SDS011;10065;49.632;8.346;2022-12-07T11:18:52;6.10;;;2.20;;
19810;SDS011;10065;49.632;8.346;2022-12-07T11:21:44;5.93;;;2.27;;
19810;SDS011;10065;49.632;8.346;2022-12-07T11:24:23;4.73;;;2.33;;
19810;SDS011;10065;49.632;8.346;2022-12-07T11:27:06;6.40;;;2.63;;
19810;SDS011;10065;49.632;8.346;2022-12-07T11:29:44;5.20;;;2.53;;
19810;SDS011;10065;49.632;8.346;2022-12-07T11:32:34;6.50;;;2.87;;
19810;SDS011;10065;49.632;8.346;2022-12-07T11:35:16;4.73;;;2.47;;
19810;SDS011;10065;49.632;8.346;2022-12-07T11:37:50;3.93;;;2.13;;
19810;SDS011;10065;49.632;8.346;2022-12-07T11:40:24;5.23;;;2.60;;
19810;SDS011;10065;49.632;8.346;2022-12-07T11:42:55;4.97;;;1.87;;
19810;SDS011;10065;49.632;8.346;2022-12-07T11:45:27;5.67;;;2.43;;
19810;SDS011;10065;49.632;8.346;2022-12-07T11:47:59;6.63;;;3.00;;
19810;SDS011;10065;49.632;8.346;2022-12-07T11:50:33;5.10;;;2.00;;
19810;SDS011;10065;49.632;8.346;2022-12-07T11:53:05;5.73;;;2.70;;
19810;SDS011;10065;49.632;8.346;2022-12-07T11:55:43;4.83;;;2.43;;
19810;SDS011;10065;49.632;8.346;2022-12-07T11:58:19;5.30;;;2.33;;
19810;SDS011;10065;49.632;8.346;2022-12-07T12:01:01;7.80;;;2.60;;
19810;SDS011;10065;49.632;8.346;2022-12-07T12:03:37;6.30;;;2.43;;
19810;SDS011;10065;49.632;8.346;2022-12-07T12:06:17;6.30;;;2.40;;
19810;SDS011;10065;49.632;8.346;2022-12-07T12:08:49;6.13;;;2.67;;
19810;SDS011;10065;49.632;8.346;2022-12-07T12:11:58;5.00;;;2.43;;
19810;SDS011;10065;49.632;8.346;2022-12-07T12:14:59;4.43;;;1.93;;
19810;SDS011;10065;49.632;8.346;2022-12-07T12:17:44;8.47;;;2.20;;
19810;SDS011;10065;49.632;8.346;2022-12-07T12:20:23;6.07;;;2.13;;
19810;SDS011;10065;49.632;8.346;2022-12-07T12:22:58;4.70;;;2.10;;
19810;SDS011;10065;49.632;8.346;2022-12-07T12:25:36;8.77;;;2.33;;
19810;SDS011;10065;49.632;8.346;2022-12-07T12:28:15;5.40;;;1.83;;
19810;SDS011;10065;49.632;8.346;2022-12-07T12:31:03;6.83;;;2.00;;
19810;SDS011;10065;49.632;8.346;2022-12-07T12:33:33;4.00;;;1.57;;
19810;SDS011;10065;49.632;8.346;2022-12-07T12:39:13;4.63;;;1.93;;
19810;SDS011;10065;49.632;8.346;2022-12-07T12:41:51;3.90;;;1.60;;
19810;SDS011;10065;49.632;8.346;2022-12-07T12:44:40;5.07;;;1.50;;
19810;SDS011;10065;49.632;8.346;2022-12-07T12:47:40;5.10;;;1.90;;
19810;SDS011;10065;49.632;8.346;2022-12-07T12:50:25;6.90;;;2.10;;
19810;SDS011;10065;49.632;8.346;2022-12-07T12:53:01;5.33;;;2.70;;
19810;SDS011;10065;49.632;8.346;2022-12-07T12:58:38;9.00;;;3.97;;
19810;SDS011;10065;49.632;8.346;2022-12-07T13:04:48;9.13;;;3.23;;
19810;SDS011;10065;49.632;8.346;2022-12-07T13:10:36;8.67;;;3.50;;
19810;SDS011;10065;49.632;8.346;2022-12-07T13:19:29;6.23;;;3.03;;
19810;SDS011;10065;49.632;8.346;2022-12-07T13:22:43;11.37;;;3.23;;
19810;SDS011;10065;49.632;8.346;2022-12-07T13:25:18;6.40;;;2.93;;
19810;SDS011;10065;49.632;8.346;2022-12-07T13:27:57;8.33;;;3.27;;
19810;SDS011;10065;49.632;8.346;2022-12-07T13:30:28;7.67;;;3.23;;
19810;SDS011;10065;49.632;8.346;2022-12-07T13:32:58;5.40;;;2.53;;
19810;SDS011;10065;49.632;8.346;2022-12-07T13:35:30;8.93;;;2.90;;
19810;SDS011;10065;49.632;8.346;2022-12-07T13:38:02;8.40;;;3.23;;
19810;SDS011;10065;49.632;8.346;2022-12-07T13:40:33;8.27;;;2.90;;
19810;SDS011;10065;49.632;8.346;2022-12-07T13:43:03;8.27;;;2.63;;
19810;SDS011;10065;49.632;8.346;2022-12-07T13:45:33;5.77;;;2.63;;
19810;SDS011;10065;49.632;8.346;2022-12-07T13:48:19;6.40;;;3.07;;
19810;SDS011;10065;49.632;8.346;2022-12-07T13:50:53;7.37;;;3.00;;
19810;SDS011;10065;49.632;8.346;2022-12-07T13:53:22;9.37;;;3.73;;
19810;SDS011;10065;49.632;8.346;2022-12-07T13:55:50;7.70;;;3.47;;
19810;SDS011;10065;49.632;8.346;2022-12-07T13:58:21;7.53;;;3.40;;
19810;SDS011;10065;49.632;8.346;2022-12-07T14:00:49;9.83;;;3.37;;
19810;SDS011;10065;49.632;8.346;2022-12-07T14:03:26;9.00;;;3.03;;
19810;SDS011;10065;49.632;8.346;2022-12-07T14:06:11;6.67;;;2.90;;
19810;SDS011;10065;49.632;8.346;2022-12-07T14:08:43;7.53;;;3.00;;
19810;SDS011;10065;49.632;8.346;2022-12-07T14:11:13;5.53;;;2.70;;
19810;SDS011;10065;49.632;8.346;2022-12-07T14:13:50;7.80;;;3.37;;
19810;SDS011;10065;49.632;8.346;2022-12-07T14:16:25;7.60;;;3.73;;
19810;SDS011;10065;49.632;8.346;2022-12-07T14:18:55;7.67;;;3.03;;
19810;SDS011;10065;49.632;8.346;2022-12-07T14:21:24;6.90;;;2.90;;
19810;SDS011;10065;49.632;8.346;2022-12-07T14:26:47;6.67;;;2.70;;
19810;SDS011;10065;49.632;8.346;2022-12-07T14:29:21;7.40;;;2.83;;
19810;SDS011;10065;49.632;8.346;2022-12-07T14:31:56;7.77;;;3.20;;
19810;SDS011;10065;49.632;8.346;2022-12-07T14:34:25;7.17;;;3.17;;
19810;SDS011;10065;49.632;8.346;2022-12-07T14:36:53;9.00;;;3.90;;
19810;SDS011;10065;49.632;8.346;2022-12-07T14:39:21;9.17;;;3.50;;
19810;SDS011;10065;49.632;8.346;2022-12-07T14:41:49;12.37;;;2.83;;
19810;SDS011;10065;49.632;8.346;2022-12-07T14:44:20;6.40;;;3.13;;
19810;SDS011;10065;49.632;8.346;2022-12-07T14:46:57;7.93;;;2.90;;
19810;SDS011;10065;49.632;8.346;2022-12-07T14:49:45;7.20;;;2.80;;
19810;SDS011;10065;49.632;8.346;2022-12-07T14:52:14;7.20;;;2.80;;
19810;SDS011;10065;49.632;8.346;2022-12-07T14:55:07;3.50;;;1.77;;
19810;SDS011;10065;49.632;8.346;2022-12-07T14:57:42;7.67;;;2.70;;
19810;SDS011;10065;49.632;8.346;2022-12-07T15:00:14;8.73;;;3.50;;
19810;SDS011;10065;49.632;8.346;2022-12-07T15:02:44;5.33;;;2.00;;
19810;SDS011;10065;49.632;8.346;2022-12-07T15:05:12;6.97;;;2.60;;
19810;SDS011;10065;49.632;8.346;2022-12-07T15:07:42;8.13;;;2.77;;
19810;SDS011;10065;49.632;8.346;2022-12-07T15:10:13;8.63;;;2.63;;
19810;SDS011;10065;49.632;8.346;2022-12-07T15:12:49;5.97;;;2.50;;
19810;SDS011;10065;49.632;8.346;2022-12-07T15:15:18;5.03;;;2.00;;
19810;SDS011;10065;49.632;8.346;2022-12-07T15:17:46;7.10;;;3.43;;
19810;SDS011;10065;49.632;8.346;2022-12-07T15:20:15;5.03;;;2.10;;
19810;SDS011;10065;49.632;8.346;2022-12-07T15:22:43;5.07;;;2.20;;
19810;SDS011;10065;49.632;8.346;2022-12-07T15:25:12;5.90;;;2.57;;
19810;SDS011;10065;49.632;8.346;2022-12-07T15:27:40;6.83;;;2.50;;
19810;SDS011;10065;49.632;8.346;2022-12-07T15:30:08;7.43;;;2.10;;
19810;SDS011;10065;49.632;8.346;2022-12-07T15:32:38;6.90;;;2.67;;
19810;SDS011;10065;49.632;8.346;2022-12-07T15:35:06;7.43;;;2.93;;